Jepson Prairie Reserve, California Weather observations

Data are for 10 minute period ending at time listed.
 Day   Time   Solar   Ave.   Ave.  Ave.  Vector  Max.   Baro.   Total    
  of    of     Rad.   Air    Rel.  Wind   Wind   Wind  Press.  Precip.   
Year   Day            Temp.  Hum.  Speed  Dir.   Gust                    
2014   (PST)  Kw/m2    F      %     mph   deg.    mph    mb.     in.     
-------------------------------------------------------------------------
 274    0:00   0.00   68.0    35    6.9   279     9.9   1008.5    0.00 
 274    0:10   0.00   66.5    36    4.6   264     9.5   1008.5    0.00 
 274    0:20   0.00   65.4    38    3.2   285     6.6   1008.8    0.00 
 274    0:30   0.00   66.6    36    6.6   294    10.9   1008.8    0.00 
 274    0:40   0.00   68.3    34   11.3   304    19.7   1008.8    0.00 
 274    0:50   0.00   69.4    33   15.3   313    22.9   1008.8    0.00 
 274    1:00   0.00   70.1    32   16.9   320    22.6   1008.5    0.00 
 274    1:10   0.00   70.2    32   18.4   319    28.3   1008.8    0.00 
 274    1:20   0.00   70.4    32   19.2   320    26.4   1008.8    0.00 
 274    1:30   0.00   70.4    32   22.2   318    33.2   1008.5    0.00 
 274    1:40   0.00   70.2    32   21.9   318    32.2   1008.5    0.00 
 274    1:50   0.00   70.3    31   23.3   320    32.9   1008.5    0.00 
 274    2:00   0.00   70.4    31   24.7   322    34.0   1008.1    0.00 
 274    2:10   0.00   70.1    31   27.1   324    37.4   1007.8    0.00 
 274    2:20   0.00   70.1    31   28.4   323    36.2   1007.8    0.00 
 274    2:30   0.00   69.9    31   25.9   323    35.1   1008.1    0.00 
 274    2:40   0.00   69.6    31   25.5   324    33.8   1008.1    0.00 
 274    2:50   0.00   69.3    32   26.4   326    34.2   1008.1    0.00 
 274    3:00   0.00   68.9    33   26.5   327    33.8   1008.5    0.00 
 274    3:10   0.00   68.7    33   25.0   326    31.1   1008.5    0.00 
 274    3:20   0.00   68.6    33   24.2   324    31.0   1008.5    0.00 
 274    3:30   0.00   68.3    34   23.0   325    29.9   1008.5    0.00 
 274    3:40   0.00   68.2    34   22.9   326    32.0   1008.5    0.00 
 274    3:50   0.00   68.0    34   22.1   329    32.4   1008.8    0.00 
 274    4:00   0.00   67.9    34   22.6   326    29.4   1008.8    0.00 
 274    4:10   0.00   67.9    34   23.9   326    34.2   1008.8    0.00 
 274    4:20   0.00   67.6    34   24.6   327    30.7   1008.8    0.00 
 274    4:30   0.00   67.5    35   26.0   328    34.3   1008.8    0.00 
 274    4:40   0.00   67.5    34   26.6   329    34.3   1008.8    0.00 
 274    4:50   0.00   67.5    34   26.4   330    38.2   1008.8    0.00 
 274    5:00   0.00   67.2    35   25.5   330    34.4   1009.1    0.00 
 274    5:10   0.00   67.1    35   25.1   329    32.8   1009.1    0.00 
 274    5:20   0.00   67.0    35   24.3   327    35.7   1009.5    0.00 
 274    5:30   0.00   67.1    34   24.5   326    31.6   1009.5    0.00 
 274    5:40   0.00   66.9    35   24.8   328    36.2   1009.5    0.00 
 274    5:50   0.00   66.9    35   26.2   328    35.4   1009.5    0.00 
 274    6:00   0.00   66.7    35   27.1   327    35.0   1009.8    0.00 
 274    6:10   0.01   66.9    34   28.9   329    39.7   1009.8    0.00 
 274    6:20   0.02   66.8    34   27.3   329    35.4   1009.8    0.00 
 274    6:30   0.04   66.9    34   25.7   326    36.5   1010.2    0.00 
 274    6:40   0.07   66.9    35   25.6   325    32.7   1010.2    0.00 
 274    6:50   0.10   67.1    34   26.1   326    33.5   1010.2    0.00 
 274    7:00   0.13   67.6    34   28.7   327    36.7   1010.2    0.00 
 274    7:10   0.16   68.2    33   26.5   329    35.7   1010.5    0.00 
 274    7:20   0.20   68.6    33   27.2   328    35.4   1010.5    0.00 
 274    7:30   0.23   69.0    32   29.7   328    40.6   1010.2    0.00 
 274    7:40   0.26   69.3    32   28.8   325    37.0   1010.5    0.00 
 274    7:50   0.29   69.7    32   25.8   325    34.1   1010.8    0.00 
 274    8:00   0.33   70.1    32   24.6   323    34.2   1010.8    0.00 
 274    8:10   0.36   70.4    32   25.3   322    32.2   1010.8    0.00 
 274    8:20   0.39   71.0    31   22.7   322    31.2   1011.2    0.00 
 274    8:30   0.42   71.2    31   25.5   324    33.1   1011.2    0.00 
 274    8:40   0.45   71.6    31   26.3   326    38.2   1011.2    0.00 
 274    8:50   0.48   72.4    30   25.2   327    32.9   1011.2    0.00 
 274    9:00   0.51   73.0    29   26.6   330    34.3   1011.2    0.00 
 274    9:10   0.54   73.5    29   24.8   329    32.1   1011.2    0.00 
 274    9:20   0.56   73.9    28   27.2   322    34.6   1011.2    0.00 
 274    9:30   0.59   74.3    28   24.2   327    31.1   1011.2    0.00 
 274    9:40   0.61   74.9    26   27.5   326    35.6   1011.2    0.00 
 274    9:50   0.63   75.4    27   24.0   326    33.5   1011.2    0.00 
 274   10:00   0.65   75.8    26   25.6   327    33.0   1010.8    0.00 
 274   10:10   0.67   76.4    25   24.8   330    33.6   1010.8    0.00 
 274   10:20   0.69   76.5    24   25.0   332    30.2   1010.8    0.00 
 274   10:30   0.70   76.9    24   26.1   325    31.2   1010.5    0.00 
 274   10:40   0.72   77.7    23   26.3   332    33.2   1010.5    0.00 
 274   10:50   0.74   78.0    22   25.3   339    31.1   1010.5    0.00 
 274   11:00   0.75   78.6    22   24.6   341    30.9   1010.5    0.00 
 274   11:10   0.75   78.8    22   24.5   338    30.2   1010.2    0.00 
 274   11:20   0.76   79.1    21   24.2   333    30.1   1010.2    0.00 
 274   11:30   0.76   79.7    21   22.4   338    30.6   1010.2    0.00 
 274   11:40   0.77   80.1    21   23.6   333    31.0   1009.8    0.00 
 274   11:50   0.78   80.2    20   23.7   335    29.3   1009.8    0.00 
 274   12:00   0.78   80.9    20   22.3   335    29.1   1009.8    0.00 
 274   12:10   0.77   82.1    20   20.4   329    27.5   1009.8    0.00 
 274   12:20   0.77   81.9    19   21.5   333    28.6   1009.5    0.00 
 274   12:30   0.77   81.7    20   22.5   327    30.7   1009.5    0.00 
 274   12:40   0.76   81.9    19   23.3   340    29.3   1009.5    0.00 
 274   12:50   0.75   82.7    19   19.2   333    28.0   1009.1    0.00 
 274   13:00   0.74   83.0    18   21.1   328    29.5   1009.1    0.00 
 274   13:10   0.73   82.9    18   22.4   332    28.1   1009.1    0.00 
 274   13:20   0.72   83.4    18   20.7   336    27.0   1008.8    0.00 
 274   13:30   0.70   83.7    17   20.3   326    25.7   1008.8    0.00 
 274   13:40   0.69   84.7    17   19.1   333    26.0   1008.8    0.00 
 274   13:50   0.67   84.4    16   21.4   328    28.4   1008.5    0.00 
 274   14:00   0.65   84.8    16   19.3   324    24.8   1008.5    0.00 
 274   14:10   0.63   84.8    15   21.0   334    26.7   1008.5    0.00 
 274   14:20   0.61   84.7    15   19.9   334    24.5   1008.8    0.00 
 274   14:30   0.58   84.8    15   18.1   330    25.5   1008.8    0.00 
 274   14:40   0.56   85.0    15   18.1   326    25.3   1008.8    0.00 
 274   14:50   0.54   85.2    14   20.1   330    25.2   1008.5    0.00 
 274   15:00   0.51   85.1    14   20.5   325    26.2   1008.5    0.00 
 274   15:10   0.47   85.3    15   17.8   330    24.3   1008.8    0.00 
 274   15:20   0.45   85.4    15   18.6   336    23.5   1008.5    0.00 
 274   15:30   0.42   85.4    14   16.9   330    22.9   1008.8    0.00 
 274   15:40   0.39   85.7    14   17.5   325    23.8   1008.5    0.00 
 274   15:50   0.35   85.3    13   17.8   329    24.1   1008.5    0.00 
 274   16:00   0.32   85.1    15   14.7   334    19.7   1008.5    0.00 
 274   16:10   0.29   85.2    15   13.9   331    18.8   1008.5    0.00 
 274   16:20   0.26   85.0    16   13.0   334    17.1   1008.5    0.00 
 274   16:30   0.22   84.6    17   12.7   338    17.0   1008.5    0.00 
 274   16:40   0.19   84.4    17   12.0   341    15.4   1008.8    0.00 
 274   16:50   0.16   84.0    17   13.8   339    17.8   1008.5    0.00 
 274   17:00   0.13   83.5    18   11.7   339    14.5   1008.5    0.00 
 274   17:10   0.09   83.0    18   10.5   346    13.4   1008.5    0.00 
 274   17:20   0.07   82.5    18   10.0   349    12.8   1008.8    0.00 
 274   17:30   0.04   80.7    20    9.6   351    11.7   1008.8    0.00 
 274   17:40   0.02   78.5    22    7.5   353    10.1   1008.8    0.00 
 274   17:50   0.01   76.7    24    7.2   350     8.6   1009.1    0.00 
 274   18:00   0.00   76.1    25    8.8   346     9.9   1009.1    0.00 
 274   18:10   0.00   74.5    26    6.5   346     9.0   1009.1    0.00 
 274   18:20   0.00   71.2    30    5.8     5     7.5   1009.5    0.00 
 274   18:30   0.00   69.3    32    4.5     8     6.4   1009.8    0.00 
 274   18:40   0.00   68.3    34    5.6   351     7.3   1009.8    0.00 
 274   18:50   0.00   67.2    34    5.4   352     7.3   1009.8    0.00 
 274   19:00   0.00   66.8    34    1.9    72     2.9   1010.2    0.00 
 274   19:10   0.00   67.7    33    1.6    17     2.3   1010.2    0.00 
 274   19:20   0.00   66.1    34    2.1   353     3.0   1010.2    0.00 
 274   19:30   0.00   61.8    40    3.4   152     6.1   1010.5    0.00 
 274   19:40   0.00   62.9    40    2.8    89     4.8   1010.5    0.00 
 274   19:50   0.00   65.8    36    3.5   360     4.4   1010.5    0.00 
 274   20:00   0.00   60.0    44    5.5   178     9.3   1010.8    0.00 
 274   20:10   0.00   59.7    44    3.2   169     6.2   1010.8    0.00 
 274   20:20   0.00   59.3    43    3.2   257     5.3   1010.8    0.00 
 274   20:30   0.00   58.1    45    7.3   217    10.6   1010.8    0.00 
 274   20:40   0.00   56.9    47    8.2   184     9.9   1010.8    0.00 
 274   20:50   0.00   56.7    46    4.1   198     5.3   1010.8    0.00 
 274   21:00   0.00   57.3    45    6.0   181     8.8   1010.8    0.00 
 274   21:10   0.00   55.4    49    4.8   190     6.9   1010.8    0.00 
 274   21:20   0.00   56.0    47    6.3   227     8.6   1010.8    0.00 
 274   21:30   0.00   54.8    50    8.0   218     8.9   1010.8    0.00 
 274   21:40   0.00   54.9    52    9.0   216    10.1   1010.8    0.00 
 274   21:50   0.00   54.7    53    9.7   198    11.1   1011.2    0.00 
 274   22:00   0.00   54.6    56    9.3   200    10.5   1010.8    0.00 
 274   22:10   0.00   55.5    58    9.8   206    10.4   1010.8    0.00 
 274   22:20   0.00   57.5    58   10.3   208    11.4   1010.8    0.00 
 274   22:30   0.00   58.1    58    8.6   209     9.9   1010.8    0.00 
 274   22:40   0.00   56.6    61    7.7   214     8.8   1010.8    0.00 
 274   22:50   0.00   55.3    64    7.2   221     9.5   1010.8    0.00 
 274   23:00   0.00   54.5    67    8.2   205    11.7   1010.8    0.00 

Return to Jepson Prairie Reserve graphs page.


Western Regional Climate Center,wrcc@dri.edu